Time;durP1;ratioP1;P1;durP2;ratioP2;P2;SDS_P1;SDS_P2;PMS_P1;PMS_P2;Temp;Humidity;BMP_temperature;BMP_pressure;BME280_temperature;BME280_humidity;BME280_pressure;Samples;Min_cycle;Max_cycle;Signal;HPM_P1;HPM_P2
2022/11/11 00:02:19;;;;;;;57.83;30.83;;;;;;;;;;6274774;22;20008;-78
2022/11/11 00:04:44;;;;;;;58.83;31.30;;;;;;;;;;6274690;22;20019;-77
2022/11/11 00:07:09;;;;;;;58.22;30.77;;;;;;;;;;6247145;22;20010;-78
2022/11/11 00:09:35;;;;;;;56.92;30.00;;;;;;;;;;6247161;22;19999;-77
2022/11/11 00:12:00;;;;;;;54.13;30.67;;;;;;;;;;6279713;22;20004;-78
2022/11/11 00:14:26;;;;;;;60.28;31.05;;;;;;;;;;6274583;22;20000;-77
2022/11/11 00:25:07;;;;;;;60.50;30.58;;;;;;;;;;6274684;22;20125;-77
2022/11/11 00:27:33;;;;;;;59.78;30.38;;;;;;;;;;6290117;22;20004;-78
2022/11/11 00:29:58;;;;;;;58.22;30.50;;;;;;;;;;6277434;22;20006;-78
2022/11/11 00:32:29;;;;;;;58.50;30.20;;;;;;;;;;6278787;22;20008;-78
2022/11/11 00:37:40;;;;;;;59.00;28.95;;;;;;;;;;6274347;22;20088;-78
2022/11/11 00:40:06;;;;;;;60.42;29.63;;;;;;;;;;6273111;22;20028;-78
2022/11/11 00:42:31;;;;;;;58.05;28.67;;;;;;;;;;6274617;22;20094;-78
2022/11/11 00:44:57;;;;;;;60.22;29.33;;;;;;;;;;6274493;22;20000;-78
2022/11/11 00:52:57;;;;;;;51.88;27.55;;;;;;;;;;6277523;22;20457;-78
2022/11/11 00:55:22;;;;;;;52.75;28.95;;;;;;;;;;6275185;22;19999;-78
2022/11/11 00:57:48;;;;;;;55.45;29.83;;;;;;;;;;6273023;22;20008;-78
2022/11/11 01:00:14;;;;;;;53.63;28.45;;;;;;;;;;6274187;22;20057;-78
2022/11/11 01:02:39;;;;;;;49.63;27.88;;;;;;;;;;6274181;22;20012;-78
2022/11/11 01:05:05;;;;;;;47.40;24.98;;;;;;;;;;6274112;22;20338;-78
2022/11/11 01:07:30;;;;;;;41.88;22.88;;;;;;;;;;6272659;22;20133;-78
2022/11/11 01:09:55;;;;;;;37.80;21.65;;;;;;;;;;6274195;22;20003;-78
2022/11/11 01:12:21;;;;;;;35.95;19.50;;;;;;;;;;6274315;22;20008;-78
2022/11/11 01:14:46;;;;;;;34.03;19.27;;;;;;;;;;6285920;22;20031;-78
2022/11/11 01:17:12;;;;;;;30.20;18.98;;;;;;;;;;6272813;22;20026;-78
2022/11/11 01:19:37;;;;;;;34.88;18.98;;;;;;;;;;6275752;22;20026;-78
2022/11/11 01:22:03;;;;;;;30.40;17.73;;;;;;;;;;6275640;22;20012;-78
2022/11/11 01:24:29;;;;;;;27.38;17.23;;;;;;;;;;6276084;22;20522;-79
2022/11/11 01:26:54;;;;;;;28.35;16.77;;;;;;;;;;6249273;22;20003;-78
2022/11/11 01:29:20;;;;;;;27.98;17.00;;;;;;;;;;6276246;22;20000;-78
2022/11/11 01:31:45;;;;;;;30.05;15.75;;;;;;;;;;6249268;22;20007;-77
2022/11/11 01:34:11;;;;;;;26.25;15.13;;;;;;;;;;6280266;22;20476;-78
2022/11/11 01:36:37;;;;;;;25.42;15.10;;;;;;;;;;6275925;22;20001;-77
2022/11/11 01:39:03;;;;;;;22.88;14.40;;;;;;;;;;6276058;22;20003;-78
2022/11/11 01:41:34;;;;;;;25.35;14.50;;;;;;;;;;6275757;22;20082;-78
2022/11/11 01:44:11;;;;;;;25.02;14.05;;;;;;;;;;6274420;22;20363;-78
2022/11/11 01:46:44;;;;;;;24.38;14.77;;;;;;;;;;6276216;22;20078;-78
2022/11/11 01:49:24;;;;;;;23.42;13.30;;;;;;;;;;6274060;22;20006;-77
2022/11/11 01:52:02;;;;;;;22.23;13.75;;;;;;;;;;6251064;22;20007;-78
2022/11/11 01:54:54;;;;;;;31.48;13.75;;;;;;;;;;6276353;22;20083;-78
2022/11/11 01:57:32;;;;;;;26.92;12.73;;;;;;;;;;6275340;22;20003;-79
2022/11/11 02:00:00;;;;;;;21.35;12.63;;;;;;;;;;6275664;22;19991;-78
2022/11/11 02:03:06;;;;;;;23.10;12.43;;;;;;;;;;6248921;22;20054;-77
2022/11/11 02:05:41;;;;;;;22.08;13.00;;;;;;;;;;6273442;22;20008;-77
2022/11/11 02:08:11;;;;;;;25.27;13.32;;;;;;;;;;6275604;22;20007;-77
2022/11/11 02:10:37;;;;;;;26.00;13.35;;;;;;;;;;6250376;22;20330;-77
2022/11/11 02:15:47;;;;;;;21.83;13.63;;;;;;;;;;6275906;22;20042;-78
2022/11/11 02:18:12;;;;;;;28.20;13.38;;;;;;;;;;6273713;22;20004;-77
2022/11/11 02:20:42;;;;;;;23.27;13.65;;;;;;;;;;6275903;22;20003;-77
2022/11/11 02:23:11;;;;;;;24.55;14.07;;;;;;;;;;6274233;22;20442;-77
2022/11/11 02:25:36;;;;;;;22.98;14.32;;;;;;;;;;6275353;22;20002;-77
2022/11/11 02:28:03;;;;;;;26.55;13.23;;;;;;;;;;6274621;22;20335;-78
2022/11/11 02:30:28;;;;;;;24.30;13.77;;;;;;;;;;6248396;22;20355;-78
2022/11/11 02:32:54;;;;;;;25.52;14.65;;;;;;;;;;6273812;22;20004;-78
2022/11/11 02:35:41;;;;;;;24.52;14.05;;;;;;;;;;6273868;22;19999;-78
2022/11/11 02:38:10;;;;;;;23.42;13.23;;;;;;;;;;6248447;22;20014;-78
2022/11/11 02:41:55;;;;;;;22.77;14.03;;;;;;;;;;6274162;22;20004;-77
2022/11/11 02:43:32;;;;;;;25.88;13.60;;;;;;;;;;6275164;22;20791;-77
2022/11/11 02:45:57;;;;;;;25.63;13.77;;;;;;;;;;6275480;22;20437;-78
2022/11/11 02:48:23;;;;;;;21.98;13.65;;;;;;;;;;6275060;22;20004;-78
2022/11/11 02:50:49;;;;;;;24.38;13.55;;;;;;;;;;6275420;22;20006;-77
2022/11/11 02:53:14;;;;;;;20.42;12.55;;;;;;;;;;6275301;22;20003;-78
2022/11/11 02:55:39;;;;;;;23.42;13.63;;;;;;;;;;6274027;22;20038;-79
2022/11/11 02:58:05;;;;;;;23.75;13.15;;;;;;;;;;6274089;22;19999;-78
2022/11/11 03:00:30;;;;;;;20.65;12.40;;;;;;;;;;6248063;22;20363;-78
2022/11/11 03:02:56;;;;;;;19.98;12.68;;;;;;;;;;6273085;22;20360;-78
2022/11/11 03:05:21;;;;;;;20.45;12.70;;;;;;;;;;6275090;22;20007;-78
2022/11/11 03:07:47;;;;;;;22.50;12.60;;;;;;;;;;6275101;22;20356;-77
2022/11/11 03:10:12;;;;;;;22.65;13.38;;;;;;;;;;6275338;22;20057;-78
2022/11/11 03:12:38;;;;;;;21.30;12.43;;;;;;;;;;6273894;22;20039;-78
2022/11/11 03:15:03;;;;;;;26.10;13.07;;;;;;;;;;6274934;22;20359;-78
2022/11/11 03:17:38;;;;;;;20.23;12.50;;;;;;;;;;6275265;22;20000;-78
2022/11/11 03:22:59;;;;;;;20.00;12.98;;;;;;;;;;6273685;22;20027;-77
2022/11/11 03:25:36;;;;;;;20.90;12.77;;;;;;;;;;6248078;22;20000;-77
2022/11/11 03:28:03;;;;;;;19.70;11.93;;;;;;;;;;6275074;22;20061;-78
2022/11/11 03:30:28;;;;;;;21.40;12.38;;;;;;;;;;6273687;22;20000;-77
2022/11/11 03:32:54;;;;;;;22.17;12.32;;;;;;;;;;6273466;22;20004;-77
2022/11/11 03:35:19;;;;;;;18.17;11.85;;;;;;;;;;6273499;22;20035;-78
2022/11/11 03:40:28;;;;;;;18.30;11.55;;;;;;;;;;6275860;22;20071;-77
2022/11/11 03:42:54;;;;;;;21.25;11.75;;;;;;;;;;6283410;22;20011;-78
2022/11/11 03:45:19;;;;;;;18.63;11.65;;;;;;;;;;6274928;22;20003;-78
2022/11/11 03:47:45;;;;;;;21.05;11.90;;;;;;;;;;6275814;22;20035;-78
2022/11/11 03:50:10;;;;;;;26.20;12.63;;;;;;;;;;6274913;22;20015;-78
2022/11/11 03:52:40;;;;;;;25.67;14.02;;;;;;;;;;6274965;22;20421;-79
2022/11/11 03:55:06;;;;;;;32.47;16.20;;;;;;;;;;6274714;22;19999;-78
2022/11/11 03:57:31;;;;;;;30.38;15.82;;;;;;;;;;6275298;22;20014;-78
2022/11/11 03:59:57;;;;;;;37.75;15.82;;;;;;;;;;6281444;22;19996;-78
2022/11/11 04:10:34;;;;;;;23.63;13.32;;;;;;;;;;6274522;22;20011;-78
2022/11/11 04:23:55;;;;;;;25.67;12.18;;;;;;;;;;6274562;22;20011;-78
2022/11/11 04:26:21;;;;;;;25.35;12.70;;;;;;;;;;6274674;22;20004;-79
2022/11/11 04:31:30;;;;;;;32.20;14.85;;;;;;;;;;6274445;22;20031;-79
2022/11/11 04:33:55;;;;;;;30.20;14.40;;;;;;;;;;6275088;22;20423;-77
2022/11/11 04:36:21;;;;;;;30.13;15.38;;;;;;;;;;6274445;22;20010;-78
2022/11/11 04:41:30;;;;;;;33.90;16.13;;;;;;;;;;6273279;22;20019;-77
2022/11/11 04:46:39;;;;;;;34.25;16.83;;;;;;;;;;6274469;22;20026;-77
2022/11/11 04:49:05;;;;;;;39.80;18.50;;;;;;;;;;6274408;22;19999;-77
2022/11/11 04:52:25;;;;;;;37.55;17.40;;;;;;;;;;6274312;22;20090;-77
2022/11/11 04:54:16;;;;;;;37.70;18.67;;;;;;;;;;6275175;22;20091;-79
2022/11/11 04:56:47;;;;;;;41.70;20.20;;;;;;;;;;6276384;22;20004;-78
2022/11/11 04:59:15;;;;;;;45.00;20.77;;;;;;;;;;6276137;22;19996;-78
2022/11/11 05:04:25;;;;;;;45.50;21.10;;;;;;;;;;6276347;22;20146;-78
2022/11/11 05:09:34;;;;;;;63.00;24.80;;;;;;;;;;6275060;22;20010;-79
2022/11/11 05:12:00;;;;;;;57.00;23.98;;;;;;;;;;6276527;22;20074;-77
2022/11/11 05:22:38;;;;;;;55.45;24.65;;;;;;;;;;6275920;22;20073;-77
2022/11/11 05:27:48;;;;;;;55.15;24.48;;;;;;;;;;6276132;22;20015;-78
2022/11/11 05:30:14;;;;;;;59.00;26.00;;;;;;;;;;6276655;22;20326;-77
2022/11/11 05:32:39;;;;;;;58.97;25.60;;;;;;;;;;6249136;22;20419;-77
2022/11/11 05:35:05;;;;;;;60.45;25.48;;;;;;;;;;6274546;22;20008;-78
2022/11/11 05:37:31;;;;;;;60.00;25.75;;;;;;;;;;6278110;22;20004;-78
2022/11/11 05:39:56;;;;;;;55.90;24.33;;;;;;;;;;6279731;22;20057;-77
2022/11/11 05:42:22;;;;;;;54.35;23.38;;;;;;;;;;6274733;22;20003;-77
2022/11/11 05:44:48;;;;;;;54.47;23.17;;;;;;;;;;6275172;22;20004;-78
2022/11/11 05:47:13;;;;;;;56.42;23.95;;;;;;;;;;6273867;22;20000;-78
2022/11/11 05:49:38;;;;;;;56.92;24.75;;;;;;;;;;6271564;22;19999;-75
2022/11/11 05:52:04;;;;;;;56.72;25.60;;;;;;;;;;6273648;22;20012;-78
2022/11/11 05:54:29;;;;;;;57.67;27.05;;;;;;;;;;6273835;22;19996;-76
2022/11/11 05:56:55;;;;;;;57.13;24.85;;;;;;;;;;6276519;22;20008;-80
2022/11/11 05:59:30;;;;;;;55.28;24.55;;;;;;;;;;6275332;22;20003;-79
2022/11/11 06:02:06;;;;;;;51.38;24.38;;;;;;;;;;6252969;22;20051;-78
2022/11/11 06:04:34;;;;;;;52.63;23.98;;;;;;;;;;6271192;22;20018;-78
2022/11/11 06:07:02;;;;;;;51.92;24.85;;;;;;;;;;6275065;22;20003;-78
2022/11/11 06:09:27;;;;;;;54.05;23.70;;;;;;;;;;6271111;22;20000;-77
2022/11/11 06:11:53;;;;;;;56.50;24.75;;;;;;;;;;6273848;22;20011;-77
2022/11/11 06:14:18;;;;;;;49.65;23.95;;;;;;;;;;6273786;22;20090;-78
2022/11/11 06:16:44;;;;;;;47.38;21.98;;;;;;;;;;6273951;22;19999;-77
2022/11/11 06:19:09;;;;;;;42.75;21.50;;;;;;;;;;6274695;22;20486;-76
2022/11/11 06:21:55;;;;;;;44.20;21.08;;;;;;;;;;6272223;22;20074;-78
2022/11/11 06:24:20;;;;;;;42.80;20.20;;;;;;;;;;6273339;22;20008;-76
2022/11/11 06:26:46;;;;;;;42.58;19.58;;;;;;;;;;6271806;22;20003;-80
2022/11/11 06:29:11;;;;;;;47.60;19.48;;;;;;;;;;6272837;22;20011;-78
2022/11/11 06:31:40;;;;;;;38.60;18.38;;;;;;;;;;6273778;22;20015;-77
2022/11/11 06:34:05;;;;;;;46.50;19.08;;;;;;;;;;6278058;22;20008;-77
2022/11/11 06:36:31;;;;;;;48.47;18.42;;;;;;;;;;6252769;22;20415;-77
2022/11/11 06:38:59;;;;;;;36.28;16.88;;;;;;;;;;6253453;22;20008;-76
2022/11/11 06:41:27;;;;;;;34.70;16.52;;;;;;;;;;6252667;22;20064;-76
2022/11/11 06:43:54;;;;;;;45.13;17.45;;;;;;;;;;6275604;22;20058;-79
2022/11/11 06:46:22;;;;;;;42.22;16.52;;;;;;;;;;6276446;22;20000;-78
2022/11/11 06:48:48;;;;;;;36.53;16.85;;;;;;;;;;6273834;22;20003;-79
2022/11/11 06:51:14;;;;;;;41.88;16.35;;;;;;;;;;6269048;22;20030;-78
2022/11/11 06:53:40;;;;;;;34.47;16.73;;;;;;;;;;6271492;22;20004;-77
2022/11/11 06:56:14;;;;;;;37.40;16.33;;;;;;;;;;6277173;22;20082;-77
2022/11/11 06:58:41;;;;;;;36.25;15.73;;;;;;;;;;6277140;22;20012;-76
2022/11/11 07:01:07;;;;;;;32.63;16.30;;;;;;;;;;6273068;22;20015;-77
2022/11/11 07:03:33;;;;;;;38.45;16.33;;;;;;;;;;6281052;22;20008;-78
2022/11/11 07:06:03;;;;;;;29.38;15.50;;;;;;;;;;6273995;22;20071;-79
2022/11/11 07:08:29;;;;;;;36.08;16.45;;;;;;;;;;6278422;22;20008;-81
2022/11/11 07:10:55;;;;;;;32.42;16.15;;;;;;;;;;6278132;22;20000;-80
2022/11/11 07:13:20;;;;;;;27.98;15.60;;;;;;;;;;6275579;22;20383;-78
2022/11/11 07:15:46;;;;;;;30.05;15.70;;;;;;;;;;6277441;22;20023;-80
2022/11/11 07:18:11;;;;;;;27.65;15.25;;;;;;;;;;6275263;22;20004;-80
2022/11/11 07:20:37;;;;;;;35.10;15.32;;;;;;;;;;6247461;22;19995;-79
2022/11/11 07:23:03;;;;;;;31.77;14.68;;;;;;;;;;6272126;22;20111;-79
2022/11/11 07:25:29;;;;;;;30.45;15.82;;;;;;;;;;6274722;22;20000;-79
2022/11/11 07:27:55;;;;;;;28.27;15.30;;;;;;;;;;6275394;22;20011;-79
2022/11/11 07:30:21;;;;;;;32.67;15.40;;;;;;;;;;6276078;22;20381;-78
2022/11/11 07:32:47;;;;;;;31.52;15.07;;;;;;;;;;6274768;22;20011;-77
2022/11/11 07:35:13;;;;;;;32.85;15.68;;;;;;;;;;6274763;22;20102;-78
2022/11/11 07:37:38;;;;;;;29.90;15.07;;;;;;;;;;6277016;22;20011;-80
2022/11/11 07:40:05;;;;;;;35.15;16.33;;;;;;;;;;6278365;22;20599;-78
2022/11/11 07:42:30;;;;;;;30.48;15.77;;;;;;;;;;6271516;22;20061;-77
2022/11/11 07:44:55;;;;;;;31.98;15.35;;;;;;;;;;6271421;22;20007;-78
2022/11/11 07:47:21;;;;;;;26.27;14.15;;;;;;;;;;6270619;22;20011;-78
2022/11/11 07:49:47;;;;;;;28.70;14.57;;;;;;;;;;6272978;22;20015;-78
2022/11/11 07:52:13;;;;;;;34.03;15.23;;;;;;;;;;6261930;22;20015;-77
2022/11/11 07:54:39;;;;;;;28.15;14.48;;;;;;;;;;6269794;22;20067;-76
2022/11/11 07:57:04;;;;;;;27.58;13.73;;;;;;;;;;6271874;22;20022;-78
2022/11/11 07:59:30;;;;;;;24.67;13.85;;;;;;;;;;6270395;22;20012;-78
2022/11/11 08:01:55;;;;;;;27.30;14.10;;;;;;;;;;6269836;22;20053;-78
2022/11/11 08:04:20;;;;;;;29.23;12.93;;;;;;;;;;6269985;22;20517;-76
2022/11/11 08:06:46;;;;;;;35.13;13.68;;;;;;;;;;6269176;22;20061;-79
2022/11/11 08:09:12;;;;;;;25.27;12.68;;;;;;;;;;6267821;22;20003;-79
2022/11/11 08:14:21;;;;;;;27.50;12.55;;;;;;;;;;6269267;22;20007;-77
2022/11/11 08:16:47;;;;;;;29.30;13.48;;;;;;;;;;6273798;22;20548;-79
2022/11/11 08:19:12;;;;;;;27.90;12.55;;;;;;;;;;6270088;22;19999;-78
2022/11/11 08:21:38;;;;;;;24.90;12.88;;;;;;;;;;6272717;22;19999;-78
2022/11/11 08:24:04;;;;;;;22.13;12.30;;;;;;;;;;6261915;22;20311;-77
2022/11/11 08:26:29;;;;;;;21.83;12.13;;;;;;;;;;6274987;22;20000;-78
2022/11/11 08:28:55;;;;;;;27.08;12.00;;;;;;;;;;6277011;22;20000;-79
2022/11/11 08:31:21;;;;;;;25.00;11.52;;;;;;;;;;6245689;22;20354;-79
2022/11/11 08:33:46;;;;;;;30.83;12.05;;;;;;;;;;6270692;22;20003;-79
2022/11/11 08:36:23;;;;;;;24.30;12.32;;;;;;;;;;6255481;22;20044;-80
2022/11/11 08:39:04;;;;;;;24.60;11.90;;;;;;;;;;6276571;22;20003;-79
2022/11/11 08:41:34;;;;;;;27.05;11.38;;;;;;;;;;6303278;22;20047;-81
2022/11/11 08:44:00;;;;;;;24.05;12.68;;;;;;;;;;6275713;22;20513;-79
2022/11/11 08:46:30;;;;;;;29.08;12.35;;;;;;;;;;6273769;22;20476;-81
2022/11/11 08:48:55;;;;;;;28.02;12.60;;;;;;;;;;6244753;22;20003;-80
2022/11/11 08:51:21;;;;;;;27.52;12.45;;;;;;;;;;6272782;22;20014;-80
2022/11/11 08:53:47;;;;;;;26.15;13.00;;;;;;;;;;6244217;22;20008;-81
2022/11/11 08:56:12;;;;;;;32.60;12.70;;;;;;;;;;6274148;22;20029;-80
2022/11/11 08:58:38;;;;;;;20.02;11.70;;;;;;;;;;6271230;22;20097;-80
2022/11/11 09:01:04;;;;;;;23.83;11.88;;;;;;;;;;6273093;22;20668;-78
2022/11/11 09:03:29;;;;;;;26.00;12.43;;;;;;;;;;6239685;22;20008;-79
2022/11/11 09:05:55;;;;;;;26.13;11.95;;;;;;;;;;6271625;22;20058;-80
2022/11/11 09:08:20;;;;;;;27.17;11.77;;;;;;;;;;6270323;22;20057;-80
2022/11/11 09:10:46;;;;;;;29.30;12.55;;;;;;;;;;6271287;22;20007;-79
2022/11/11 09:13:11;;;;;;;28.20;11.65;;;;;;;;;;6248233;22;20055;-81
2022/11/11 09:15:37;;;;;;;26.63;12.75;;;;;;;;;;6248295;22;20511;-78
2022/11/11 09:18:03;;;;;;;23.83;12.20;;;;;;;;;;6272924;22;20003;-81
2022/11/11 09:20:28;;;;;;;24.60;13.23;;;;;;;;;;6270345;22;20317;-79
2022/11/11 09:22:54;;;;;;;27.20;12.63;;;;;;;;;;6272004;22;20004;-82
2022/11/11 09:25:19;;;;;;;27.52;12.80;;;;;;;;;;6270038;22;20062;-79
2022/11/11 09:27:55;;;;;;;23.58;12.50;;;;;;;;;;6273034;22;20000;-80
2022/11/11 09:30:21;;;;;;;22.98;12.60;;;;;;;;;;6272601;22;20074;-77
2022/11/11 09:32:46;;;;;;;26.80;12.82;;;;;;;;;;6271536;22;20070;-78
2022/11/11 09:35:12;;;;;;;21.75;12.77;;;;;;;;;;6272249;22;20014;-77
2022/11/11 09:37:37;;;;;;;22.67;12.20;;;;;;;;;;6272707;22;20002;-76
2022/11/11 09:40:03;;;;;;;21.92;11.68;;;;;;;;;;6274349;22;20003;-74
2022/11/11 09:42:39;;;;;;;25.20;13.00;;;;;;;;;;6276863;22;20492;-75
2022/11/11 09:45:44;;;;;;;19.70;12.05;;;;;;;;;;6272889;22;20064;-73
2022/11/11 09:48:19;;;;;;;21.20;12.30;;;;;;;;;;6269563;22;20015;-74
2022/11/11 09:50:53;;;;;;;26.13;13.13;;;;;;;;;;6270316;22;20030;-76
2022/11/11 09:53:28;;;;;;;22.75;12.70;;;;;;;;;;6245528;22;20108;-75
2022/11/11 09:56:01;;;;;;;25.25;12.57;;;;;;;;;;6269603;22;20595;-76
2022/11/11 09:58:54;;;;;;;20.90;11.63;;;;;;;;;;6268135;22;20074;-77
2022/11/11 10:01:46;;;;;;;26.80;12.45;;;;;;;;;;6272098;22;20377;-77
2022/11/11 10:04:34;;;;;;;20.52;12.38;;;;;;;;;;6263678;22;20070;-77
2022/11/11 10:07:04;;;;;;;22.70;12.57;;;;;;;;;;6270933;22;20307;-76
2022/11/11 10:09:40;;;;;;;22.02;12.80;;;;;;;;;;6244632;22;20383;-73
2022/11/11 10:12:09;;;;;;;23.00;12.60;;;;;;;;;;6247430;22;20359;-74
2022/11/11 10:14:40;;;;;;;23.90;12.95;;;;;;;;;;6270217;22;20038;-74
2022/11/11 10:17:28;;;;;;;22.60;12.68;;;;;;;;;;6276065;22;20015;-76
2022/11/11 10:20:00;;;;;;;23.00;13.48;;;;;;;;;;6272205;22;20402;-76
2022/11/11 10:22:32;;;;;;;26.35;13.57;;;;;;;;;;6271486;22;20046;-75
2022/11/11 10:25:16;;;;;;;23.75;13.32;;;;;;;;;;6274017;22;20023;-76
2022/11/11 10:27:43;;;;;;;23.85;13.52;;;;;;;;;;6274120;22;20000;-77
2022/11/11 10:30:20;;;;;;;24.88;13.70;;;;;;;;;;6274853;22;20004;-76
2022/11/11 10:33:11;;;;;;;25.15;13.70;;;;;;;;;;6275632;22;19996;-76
2022/11/11 10:35:37;;;;;;;26.52;13.23;;;;;;;;;;6271694;22;20052;-74
2022/11/11 10:38:33;;;;;;;27.40;13.02;;;;;;;;;;6222419;22;20067;-78
2022/11/11 10:41:12;;;;;;;26.45;13.80;;;;;;;;;;6276042;22;20019;-78
2022/11/11 10:43:37;;;;;;;29.48;13.38;;;;;;;;;;6276493;22;20051;-80
2022/11/11 10:46:12;;;;;;;24.52;13.40;;;;;;;;;;6273524;22;20099;-77
2022/11/11 10:48:55;;;;;;;30.73;13.75;;;;;;;;;;6272598;22;20019;-77
2022/11/11 10:51:21;;;;;;;28.42;14.27;;;;;;;;;;6272419;22;20031;-76
2022/11/11 10:53:47;;;;;;;25.20;14.65;;;;;;;;;;6222262;22;20004;-80
2022/11/11 10:56:21;;;;;;;26.15;14.65;;;;;;;;;;6277896;22;20053;-79
2022/11/11 10:58:57;;;;;;;30.02;14.25;;;;;;;;;;6272652;22;19999;-78
2022/11/11 11:01:35;;;;;;;31.27;14.93;;;;;;;;;;6253641;22;20112;-78
2022/11/11 11:04:05;;;;;;;29.30;15.15;;;;;;;;;;6284442;22;20003;-79
2022/11/11 11:06:33;;;;;;;25.08;15.05;;;;;;;;;;6250876;22;20003;-78
2022/11/11 11:09:07;;;;;;;31.95;16.38;;;;;;;;;;6250148;22;20140;-76
2022/11/11 11:11:58;;;;;;;31.80;15.45;;;;;;;;;;6271269;22;20000;-76
2022/11/11 11:14:28;;;;;;;34.72;15.15;;;;;;;;;;6235680;22;20014;-78
2022/11/11 11:16:54;;;;;;;31.30;14.52;;;;;;;;;;6245196;22;20000;-77
2022/11/11 11:19:26;;;;;;;28.88;15.48;;;;;;;;;;6272527;22;20022;-77
2022/11/11 11:21:59;;;;;;;31.10;15.65;;;;;;;;;;6270780;22;20443;-77
2022/11/11 11:24:26;;;;;;;27.98;14.75;;;;;;;;;;6272331;22;19999;-78
2022/11/11 11:26:54;;;;;;;33.30;16.80;;;;;;;;;;6275133;22;20378;-76
2022/11/11 11:29:34;;;;;;;31.80;15.95;;;;;;;;;;6270286;22;20447;-77
2022/11/11 11:32:26;;;;;;;27.52;15.52;;;;;;;;;;6274234;22;20027;-77
2022/11/11 11:34:55;;;;;;;36.33;16.00;;;;;;;;;;6271430;22;20086;-76
2022/11/11 11:37:24;;;;;;;24.90;15.23;;;;;;;;;;6269075;22;20497;-76
2022/11/11 11:40:00;;;;;;;29.60;14.93;;;;;;;;;;6269464;22;20000;-76
2022/11/11 11:42:31;;;;;;;31.90;14.57;;;;;;;;;;6268604;22;20008;-77
2022/11/11 11:44:57;;;;;;;30.65;15.13;;;;;;;;;;6271154;22;19995;-76
2022/11/11 11:47:53;;;;;;;33.78;14.68;;;;;;;;;;6268751;22;20004;-77
2022/11/11 11:50:50;;;;;;;28.38;15.63;;;;;;;;;;6271569;22;20007;-76
2022/11/11 11:53:34;;;;;;;28.67;14.90;;;;;;;;;;6243487;22;20044;-77
2022/11/11 11:56:18;;;;;;;27.60;14.50;;;;;;;;;;6269873;22;20003;-78
2022/11/11 11:58:46;;;;;;;29.25;13.75;;;;;;;;;;6246121;22;20074;-77
2022/11/11 12:01:13;;;;;;;26.10;14.00;;;;;;;;;;6270170;22;20362;-77
2022/11/11 12:04:07;;;;;;;26.95;14.32;;;;;;;;;;6242982;22;20291;-77
2022/11/11 12:07:04;;;;;;;23.50;13.15;;;;;;;;;;6216732;22;20015;-77
2022/11/11 12:09:41;;;;;;;32.08;15.65;;;;;;;;;;6275020;22;20423;-76
2022/11/11 12:12:07;;;;;;;29.48;14.30;;;;;;;;;;6271806;22;20031;-76
2022/11/11 12:14:57;;;;;;;32.13;16.35;;;;;;;;;;6272580;22;20255;-76
2022/11/11 12:17:49;;;;;;;30.10;15.38;;;;;;;;;;6270368;22;20011;-76
2022/11/11 12:20:25;;;;;;;30.30;15.48;;;;;;;;;;6271038;22;20581;-77
2022/11/11 12:22:51;;;;;;;25.98;14.68;;;;;;;;;;6272150;22;20515;-76
2022/11/11 12:25:22;;;;;;;30.58;16.15;;;;;;;;;;6276647;22;20031;-76
2022/11/11 12:27:54;;;;;;;32.38;15.98;;;;;;;;;;6274733;22;20071;-77
2022/11/11 12:30:26;;;;;;;27.88;15.43;;;;;;;;;;6269921;22;20934;-76
2022/11/11 12:33:00;;;;;;;26.90;14.82;;;;;;;;;;6269451;22;20071;-75
2022/11/11 12:35:41;;;;;;;31.10;15.50;;;;;;;;;;6274591;22;20035;-76
2022/11/11 12:38:21;;;;;;;29.38;14.60;;;;;;;;;;6270646;22;20103;-76
2022/11/11 12:40:59;;;;;;;29.98;15.55;;;;;;;;;;6271441;22;20078;-76
2022/11/11 12:43:28;;;;;;;26.80;15.23;;;;;;;;;;6270590;22;20038;-78
2022/11/11 12:46:15;;;;;;;30.95;15.60;;;;;;;;;;6271888;22;20073;-78
2022/11/11 12:48:58;;;;;;;26.85;14.00;;;;;;;;;;6272860;22;20014;-75
2022/11/11 12:51:54;;;;;;;24.10;14.15;;;;;;;;;;6272251;22;20465;-75
2022/11/11 12:54:26;;;;;;;25.75;13.90;;;;;;;;;;6249082;22;20431;-76
2022/11/11 12:57:10;;;;;;;29.00;15.00;;;;;;;;;;6268914;22;20008;-77
2022/11/11 13:00:00;;;;;;;29.27;14.55;;;;;;;;;;6268992;22;20006;-76
2022/11/11 13:02:50;;;;;;;27.60;15.02;;;;;;;;;;6269286;22;20405;-76
2022/11/11 13:05:45;;;;;;;30.73;14.65;;;;;;;;;;6268614;22;20437;-78
2022/11/11 13:08:19;;;;;;;29.92;14.63;;;;;;;;;;6273348;22;20004;-76
2022/11/11 13:11:05;;;;;;;28.63;13.82;;;;;;;;;;6272927;22;20324;-78
2022/11/11 13:14:24;;;;;;;27.48;14.55;;;;;;;;;;6274788;22;20082;-77
2022/11/11 13:16:51;;;;;;;32.08;14.20;;;;;;;;;;6213905;23;20083;-76
2022/11/11 13:19:32;;;;;;;28.63;14.00;;;;;;;;;;6188670;23;20005;-78
2022/11/11 13:22:07;;;;;;;25.67;14.15;;;;;;;;;;6215493;22;20015;-76
2022/11/11 13:24:32;;;;;;;36.90;20.08;;;;;;;;;;6250846;22;20027;-77
2022/11/11 13:27:04;;;;;;;31.77;17.42;;;;;;;;;;6256697;22;20026;-77
2022/11/11 13:29:59;;;;;;;29.63;15.50;;;;;;;;;;6250427;22;20394;-78
2022/11/11 13:32:29;;;;;;;29.75;14.77;;;;;;;;;;6277352;22;20003;-78
2022/11/11 13:34:55;;;;;;;34.72;15.25;;;;;;;;;;6255488;22;20000;-78
2022/11/11 13:37:28;;;;;;;35.17;14.95;;;;;;;;;;6250942;22;20340;-79
2022/11/11 13:39:59;;;;;;;32.30;15.32;;;;;;;;;;6251991;22;20141;-77
2022/11/11 13:42:26;;;;;;;54.28;28.45;;;;;;;;;;6253773;22;20008;-79
2022/11/11 13:44:56;;;;;;;39.80;22.67;;;;;;;;;;6256153;22;20082;-77
2022/11/11 13:47:22;;;;;;;;;;;;;;;;;;6282024;22;20031;-79
2022/11/11 13:49:59;;;;;;;36.75;18.15;;;;;;;;;;6276235;22;19957;-77
2022/11/11 13:52:39;;;;;;;31.92;16.60;;;;;;;;;;6248950;22;19996;-77
2022/11/11 13:55:09;;;;;;;31.10;17.58;;;;;;;;;;6272095;22;20129;-76
2022/11/11 13:57:46;;;;;;;35.03;19.13;;;;;;;;;;6274103;22;20049;-77
2022/11/11 14:00:20;;;;;;;32.20;16.33;;;;;;;;;;6221568;22;20069;-77
2022/11/11 14:02:45;;;;;;;35.15;16.52;;;;;;;;;;6275699;22;20597;-77
2022/11/11 14:05:16;;;;;;;36.33;17.10;;;;;;;;;;6278594;22;20409;-76
2022/11/11 14:07:46;;;;;;;37.97;18.33;;;;;;;;;;6276896;22;20011;-76
2022/11/11 14:10:17;;;;;;;31.67;17.58;;;;;;;;;;6274967;22;20145;-76
2022/11/11 14:12:43;;;;;;;29.48;16.67;;;;;;;;;;6275512;22;20430;-76
2022/11/11 14:15:33;;;;;;;33.33;17.13;;;;;;;;;;6275338;22;20006;-76
2022/11/11 14:17:59;;;;;;;;;;;;;;;;;;6276335;22;20368;-76
2022/11/11 14:20:50;;;;;;;32.55;18.30;;;;;;;;;;6274826;22;19914;-87
2022/11/11 14:23:19;;;;;;;32.42;17.38;;;;;;;;;;6270559;22;20003;-87
2022/11/11 14:25:48;;;;;;;34.35;17.65;;;;;;;;;;6280785;22;20027;-76
2022/11/11 14:28:23;;;;;;;45.45;23.10;;;;;;;;;;6273849;22;19997;-76
2022/11/11 14:30:48;;;;;;;57.88;26.52;;;;;;;;;;6275095;22;20010;-75
2022/11/11 14:33:23;;;;;;;50.92;25.60;;;;;;;;;;6248388;22;20028;-76
2022/11/11 14:36:08;;;;;;;58.42;25.48;;;;;;;;;;6274121;22;20003;-76
2022/11/11 14:39:14;;;;;;;53.25;25.88;;;;;;;;;;6273531;22;20046;-76
2022/11/11 14:41:40;;;;;;;67.22;28.50;;;;;;;;;;6274797;22;20007;-75
2022/11/11 14:44:33;;;;;;;65.70;29.77;;;;;;;;;;6274148;22;20007;-76
2022/11/11 14:47:01;;;;;;;53.80;26.35;;;;;;;;;;6272387;22;20003;-76
2022/11/11 14:49:53;;;;;;;52.42;25.33;;;;;;;;;;6275841;22;20004;-75
2022/11/11 14:52:29;;;;;;;48.90;22.60;;;;;;;;;;6274718;22;20346;-76
2022/11/11 14:54:57;;;;;;;41.05;19.55;;;;;;;;;;6274935;22;20426;-76
2022/11/11 14:57:37;;;;;;;39.95;19.10;;;;;;;;;;6274956;22;20090;-76
2022/11/11 15:00:04;;;;;;;;;;;;;;;;;;6275442;22;20058;-77
2022/11/11 15:02:33;;;;;;;34.83;16.17;;;;;;;;;;6274972;22;19912;-77
2022/11/11 15:04:59;;;;;;;30.05;14.00;;;;;;;;;;6272827;22;20007;-77
2022/11/11 15:07:51;;;;;;;25.17;12.57;;;;;;;;;;6248024;22;20003;-76
2022/11/11 15:10:43;;;;;;;23.25;12.63;;;;;;;;;;6229682;22;20047;-77
2022/11/11 15:13:45;;;;;;;23.40;12.60;;;;;;;;;;6245377;22;20018;-76
2022/11/11 15:16:40;;;;;;;20.13;11.40;;;;;;;;;;6274988;22;20023;-76
2022/11/11 15:19:22;;;;;;;25.80;12.40;;;;;;;;;;6273664;22;20359;-75
2022/11/11 15:22:12;;;;;;;25.42;13.88;;;;;;;;;;6274152;22;20064;-77
2022/11/11 15:24:40;;;;;;;29.88;14.57;;;;;;;;;;6274780;22;20007;-77
2022/11/11 15:27:28;;;;;;;26.17;12.77;;;;;;;;;;6275803;22;20000;-77
2022/11/11 15:29:57;;;;;;;24.58;12.00;;;;;;;;;;6274455;22;20415;-77
2022/11/11 15:32:34;;;;;;;22.92;13.23;;;;;;;;;;6273796;22;20000;-76
2022/11/11 15:35:21;;;;;;;16.80;9.48;;;;;;;;;;6248252;22;20342;-76
2022/11/11 15:37:52;;;;;;;28.10;13.95;;;;;;;;;;6274130;22;20023;-76
2022/11/11 15:40:22;;;;;;;21.65;12.25;;;;;;;;;;6248736;22;20058;-77
2022/11/11 15:42:48;;;;;;;24.40;13.88;;;;;;;;;;6273139;22;20004;-76
2022/11/11 15:45:17;;;;;;;26.13;13.43;;;;;;;;;;6276035;22;20071;-77
2022/11/11 15:47:42;;;;;;;21.80;12.13;;;;;;;;;;6274372;22;20004;-76
2022/11/11 15:50:30;;;;;;;23.52;12.80;;;;;;;;;;6274212;22;20086;-76
2022/11/11 15:52:59;;;;;;;20.15;11.95;;;;;;;;;;6274422;22;19995;-78
2022/11/11 15:55:32;;;;;;;20.15;11.30;;;;;;;;;;6274552;22;20061;-75